createdAt,value
2023-02-02T00:02:04.676Z,98830.50
2023-02-02T00:04:35.950Z,98833.97
2023-02-02T00:07:05.310Z,98830.63
2023-02-02T00:09:33.083Z,98839.94
2023-02-02T00:12:01.396Z,98835.78
2023-02-02T00:14:28.480Z,98825.00
2023-02-02T00:16:56.553Z,98819.25
2023-02-02T00:19:30.367Z,98829.13
2023-02-02T00:21:57.850Z,98820.50
2023-02-02T00:24:24.759Z,98828.13
2023-02-02T00:26:54.038Z,98829.69
2023-02-02T00:29:23.768Z,98823.78
2023-02-02T00:31:50.730Z,98824.78
2023-02-02T00:34:17.938Z,98823.34
2023-02-02T00:36:47.727Z,98830.75
2023-02-02T00:39:18.717Z,98821.56
2023-02-02T00:41:46.149Z,98825.81
2023-02-02T00:44:31.671Z,98827.56
2023-02-02T00:46:59.809Z,98817.53
2023-02-02T00:49:26.427Z,98820.81
2023-02-02T00:51:53.188Z,98822.41
2023-02-02T00:54:19.897Z,98824.19
2023-02-02T00:56:46.613Z,98820.81
2023-02-02T00:59:13.623Z,98809.97
2023-02-02T01:01:40.439Z,98819.16
2023-02-02T01:04:07.390Z,98820.72
2023-02-02T01:06:34.466Z,98826.09
2023-02-02T01:09:01.912Z,98819.91
2023-02-02T01:11:28.815Z,98836.72
2023-02-02T01:13:55.525Z,98837.88
2023-02-02T01:16:22.749Z,98834.59
2023-02-02T01:18:50.960Z,98840.63
2023-02-02T01:21:18.159Z,98823.66
2023-02-02T01:23:45.145Z,98839.22
2023-02-02T01:26:12.952Z,98847.63
2023-02-02T01:28:40.291Z,98841.81
2023-02-02T01:31:12.247Z,98842.91
2023-02-02T01:33:39.974Z,98843.66
2023-02-02T01:36:20.493Z,98850.44
2023-02-02T01:38:48.162Z,98850.50
2023-02-02T01:41:18.343Z,98841.25
2023-02-02T01:43:46.042Z,98844.63
2023-02-02T01:46:14.872Z,98845.34
2023-02-02T01:48:46.390Z,98843.75
2023-02-02T01:51:17.427Z,98837.13
2023-02-02T01:53:46.178Z,98842.25
2023-02-02T01:56:17.513Z,98842.34
2023-02-02T01:58:45.239Z,98845.69
2023-02-02T02:01:13.374Z,98837.31
2023-02-02T02:03:40.704Z,98845.56
2023-02-02T02:06:15.754Z,98848.97
2023-02-02T02:09:05.157Z,98846.38
2023-02-02T02:11:34.790Z,98845.50
2023-02-02T02:14:24.381Z,98839.56
2023-02-02T02:16:54.416Z,98840.44
2023-02-02T02:20:11.357Z,98854.22
2023-02-02T02:23:32.067Z,98842.59
2023-02-02T02:26:26.680Z,98837.50
2023-02-02T02:29:17.618Z,98845.97
2023-02-02T02:32:38.333Z,98829.72
2023-02-02T02:35:43.925Z,98839.97
2023-02-02T02:38:45.142Z,98838.97
2023-02-02T02:41:29.288Z,98843.47
2023-02-02T02:44:01.518Z,98838.56
2023-02-02T02:46:28.715Z,98842.75
2023-02-02T02:49:01.661Z,98835.78
2023-02-02T02:51:45.255Z,98834.16
2023-02-02T02:54:29.867Z,98830.97
2023-02-02T02:57:25.143Z,98847.06
2023-02-02T03:00:16.084Z,98837.78
2023-02-02T03:02:50.630Z,98843.47
2023-02-02T03:05:39.143Z,98845.19
2023-02-02T03:08:22.835Z,98844.97
2023-02-02T03:10:49.721Z,98843.44
2023-02-02T03:13:17.235Z,98848.56
2023-02-02T03:15:45.744Z,98844.50
2023-02-02T03:18:18.998Z,98846.97
2023-02-02T03:20:47.168Z,98842.75
2023-02-02T03:23:14.742Z,98846.13
2023-02-02T03:25:41.944Z,98846.44
2023-02-02T03:28:09.082Z,98838.66
2023-02-02T03:30:37.370Z,98846.03
2023-02-02T03:33:05.556Z,98847.53
2023-02-02T03:35:32.514Z,98840.53
2023-02-02T03:37:59.174Z,98846.81
2023-02-02T03:40:27.520Z,98839.56
2023-02-02T03:42:54.340Z,98845.91
2023-02-02T03:45:21.147Z,98849.69
2023-02-02T03:47:48.178Z,98835.03
2023-02-02T03:50:15.078Z,98845.31
2023-02-02T03:52:41.665Z,98841.06
2023-02-02T03:55:08.677Z,98845.28
2023-02-02T03:57:35.237Z,98852.88
2023-02-02T04:00:02.221Z,98845.06
2023-02-02T04:02:38.887Z,98850.06
2023-02-02T04:05:06.050Z,98844.97
2023-02-02T04:07:32.704Z,98847.41
2023-02-02T04:09:59.356Z,98840.31
2023-02-02T04:12:26.007Z,98847.28
2023-02-02T04:14:53.042Z,98841.72
2023-02-02T04:17:19.652Z,98852.59
2023-02-02T04:19:46.359Z,98859.72
2023-02-02T04:22:12.946Z,98854.72
2023-02-02T04:24:39.655Z,98854.06
2023-02-02T04:27:06.259Z,98857.44
2023-02-02T04:29:32.938Z,98852.75
2023-02-02T04:31:59.671Z,98860.31
2023-02-02T04:34:26.381Z,98850.97
2023-02-02T04:36:52.957Z,98858.81
2023-02-02T04:39:19.711Z,98860.28
2023-02-02T04:41:46.326Z,98862.91
2023-02-02T04:44:16.584Z,98863.22
2023-02-02T04:46:44.176Z,98865.97
2023-02-02T04:49:11.666Z,98857.69
2023-02-02T04:51:39.741Z,98862.81
2023-02-02T04:54:07.207Z,98867.84
2023-02-02T04:56:34.797Z,98872.09
2023-02-02T04:59:01.653Z,98869.53
2023-02-02T05:01:30.348Z,98877.16
2023-02-02T05:03:57.900Z,98874.50
2023-02-02T05:06:25.286Z,98865.09
2023-02-02T05:08:52.009Z,98881.75
2023-02-02T05:11:21.603Z,98894.78
2023-02-02T05:13:50.006Z,98886.53
2023-02-02T05:16:17.476Z,98881.34
2023-02-02T05:18:52.343Z,98897.78
2023-02-02T05:21:19.714Z,98890.09
2023-02-02T05:23:46.758Z,98899.28
2023-02-02T05:26:20.844Z,98899.00
2023-02-02T05:28:48.413Z,98897.94
2023-02-02T05:31:15.202Z,98894.63
2023-02-02T05:33:42.545Z,98898.00
2023-02-02T05:36:09.971Z,98897.66
2023-02-02T05:38:36.783Z,98899.94
2023-02-02T05:41:03.979Z,98905.72
2023-02-02T05:43:32.059Z,98895.59
2023-02-02T05:45:59.128Z,98905.81
2023-02-02T05:48:26.342Z,98893.63
2023-02-02T05:51:05.479Z,98896.47
2023-02-02T05:53:33.844Z,98905.56
2023-02-02T05:56:00.535Z,98904.00
2023-02-02T05:58:28.140Z,98905.44
2023-02-02T06:00:56.729Z,98905.81
2023-02-02T06:03:24.202Z,98908.03
2023-02-02T06:05:50.863Z,98915.56
2023-02-02T06:08:17.577Z,98907.16
2023-02-02T06:10:44.612Z,98908.25
2023-02-02T06:13:11.385Z,98917.09
2023-02-02T06:15:38.271Z,98917.28
2023-02-02T06:18:06.883Z,98912.63
2023-02-02T06:20:33.888Z,98920.09
2023-02-02T06:23:00.660Z,98919.69
2023-02-02T06:25:27.731Z,98920.91
2023-02-02T06:27:58.470Z,98917.09
2023-02-02T06:30:26.086Z,98919.09
2023-02-02T06:32:53.055Z,98915.16
2023-02-02T06:35:20.021Z,98914.09
2023-02-02T06:37:46.744Z,98921.41
2023-02-02T06:40:13.826Z,98921.78
2023-02-02T06:42:40.952Z,98926.56
2023-02-02T06:45:08.200Z,98920.75
2023-02-02T06:47:34.884Z,98929.44
2023-02-02T06:50:01.646Z,98927.81
2023-02-02T06:52:28.358Z,98933.13
2023-02-02T06:54:55.165Z,98931.75
2023-02-02T06:57:21.785Z,98935.50
2023-02-02T06:59:48.462Z,98936.81
2023-02-02T07:02:15.095Z,98937.19
2023-02-02T07:04:41.791Z,98939.97
2023-02-02T07:07:08.594Z,98938.34
2023-02-02T07:09:35.888Z,98941.59
2023-02-02T07:12:02.515Z,98941.53
2023-02-02T07:14:29.261Z,98942.63
2023-02-02T07:16:55.860Z,98940.34
2023-02-02T07:19:22.711Z,98949.09
2023-02-02T07:21:49.592Z,98952.56
2023-02-02T07:24:16.382Z,98949.34
2023-02-02T07:26:43.047Z,98944.22
2023-02-02T07:29:14.075Z,98941.03
2023-02-02T07:31:40.786Z,98946.38
2023-02-02T07:34:07.466Z,98946.25
2023-02-02T07:36:34.440Z,98947.25
2023-02-02T07:39:04.377Z,98944.63
2023-02-02T07:41:31.650Z,98954.91
2023-02-02T07:43:58.343Z,98954.25
2023-02-02T07:46:25.247Z,98952.81
2023-02-02T07:48:55.608Z,98933.47
2023-02-02T07:51:23.424Z,98948.72
2023-02-02T07:53:52.903Z,98949.75
2023-02-02T07:56:25.103Z,98937.00
2023-02-02T07:58:53.214Z,98948.56
2023-02-02T08:01:22.796Z,98951.56
2023-02-02T08:03:50.638Z,98950.41
2023-02-02T08:06:25.979Z,98950.16
2023-02-02T08:08:52.779Z,98955.63
2023-02-02T08:11:21.836Z,98955.31
2023-02-02T08:13:53.136Z,98955.59
2023-02-02T08:16:20.850Z,98955.13
2023-02-02T08:18:47.672Z,98956.38
2023-02-02T08:21:15.287Z,98954.09
2023-02-02T08:23:42.637Z,98959.44
2023-02-02T08:26:22.466Z,98953.34
2023-02-02T08:28:52.871Z,98955.47
2023-02-02T08:31:43.181Z,98955.53
2023-02-02T08:34:11.152Z,98960.69
2023-02-02T08:36:38.216Z,98975.09
2023-02-02T08:39:11.488Z,98970.59
2023-02-02T08:41:38.936Z,98967.72
2023-02-02T08:44:07.814Z,98972.97
2023-02-02T08:46:38.053Z,98970.47
2023-02-02T08:49:04.693Z,98979.09
2023-02-02T08:51:31.433Z,98980.22
2023-02-02T08:53:58.084Z,98977.66
2023-02-02T08:56:24.804Z,98960.31
2023-02-02T08:58:53.520Z,98961.00
2023-02-02T09:01:25.895Z,98968.16
2023-02-02T09:03:59.083Z,98974.34
2023-02-02T09:06:36.730Z,98975.97
2023-02-02T09:09:05.347Z,98981.13
2023-02-02T09:11:31.980Z,98968.00
2023-02-02T09:14:00.613Z,98972.41
2023-02-02T09:16:27.779Z,98964.56
2023-02-02T09:18:55.774Z,98972.66
2023-02-02T09:21:22.853Z,98971.97
2023-02-02T09:23:50.569Z,98963.16
2023-02-02T09:26:18.942Z,98974.94
2023-02-02T09:28:54.577Z,98973.00
2023-02-02T09:31:21.508Z,98978.50
2023-02-02T09:33:48.486Z,98973.31
2023-02-02T09:36:18.349Z,98973.97
2023-02-02T09:38:45.046Z,98980.09
2023-02-02T09:41:27.029Z,98974.78
2023-02-02T09:44:08.830Z,98978.00
2023-02-02T09:46:41.618Z,98982.63
2023-02-02T09:49:13.374Z,98976.44
2023-02-02T09:51:44.575Z,98982.75
2023-02-02T09:54:14.515Z,98987.50
2023-02-02T09:56:44.658Z,98980.63
2023-02-02T09:59:24.521Z,98986.09
2023-02-02T10:01:56.394Z,98982.72
2023-02-02T10:04:36.276Z,98987.41
2023-02-02T10:07:10.572Z,98992.66
2023-02-02T10:09:48.021Z,98987.13
2023-02-02T10:12:32.947Z,98986.75
2023-02-02T10:15:35.127Z,98978.00
2023-02-02T10:18:20.637Z,98967.72
2023-02-02T10:21:00.980Z,98984.47
2023-02-02T10:23:38.725Z,98976.09
2023-02-02T10:26:08.463Z,98978.28
2023-02-02T10:29:03.489Z,98971.69
2023-02-02T10:31:48.016Z,98969.50
2023-02-02T10:34:22.638Z,98976.16
2023-02-02T10:37:18.613Z,98980.09
2023-02-02T10:39:57.672Z,98980.16
2023-02-02T10:42:33.454Z,98969.03
2023-02-02T10:45:12.140Z,98967.84
2023-02-02T10:47:38.971Z,98969.53
2023-02-02T10:50:21.901Z,98957.94
2023-02-02T10:52:59.428Z,98955.19
2023-02-02T10:55:33.173Z,98955.13
2023-02-02T10:58:11.990Z,98954.66
2023-02-02T11:00:52.787Z,98942.53
2023-02-02T11:03:23.073Z,98933.88
2023-02-02T11:06:08.602Z,98937.75
2023-02-02T11:08:35.296Z,98935.38
2023-02-02T11:11:19.942Z,98939.06
2023-02-02T11:13:50.486Z,98931.81
2023-02-02T11:16:17.241Z,98924.59
2023-02-02T11:18:45.576Z,98921.66
2023-02-02T11:21:21.341Z,98915.50
2023-02-02T11:24:19.320Z,98913.19
2023-02-02T11:26:56.103Z,98922.44
2023-02-02T11:29:37.419Z,98915.38
2023-02-02T11:32:24.415Z,98911.38
2023-02-02T11:35:16.456Z,98895.03
2023-02-02T11:37:54.019Z,98896.59
2023-02-02T11:40:28.593Z,98892.84
2023-02-02T11:43:06.258Z,98895.50
2023-02-02T11:45:39.828Z,98887.88
2023-02-02T11:48:17.255Z,98886.06
2023-02-02T11:50:53.821Z,98878.44
2023-02-02T11:53:33.059Z,98870.22
2023-02-02T11:56:06.016Z,98870.13
2023-02-02T11:58:55.516Z,98864.34
2023-02-02T12:01:28.819Z,98855.50
2023-02-02T12:03:59.222Z,98854.13
2023-02-02T12:06:34.133Z,98845.75
2023-02-02T12:09:04.828Z,98848.06
2023-02-02T12:11:54.167Z,98835.97
2023-02-02T12:14:56.075Z,98829.69
2023-02-02T12:17:35.264Z,98839.19
2023-02-02T12:20:14.719Z,98830.63
2023-02-02T12:22:52.819Z,98833.97
2023-02-02T12:25:53.424Z,98833.13
2023-02-02T12:28:39.980Z,98816.28
2023-02-02T12:31:21.321Z,98828.69
2023-02-02T12:34:18.905Z,98827.19
2023-02-02T12:37:07.130Z,98822.88
2023-02-02T12:40:00.593Z,98826.66
2023-02-02T12:42:52.147Z,98830.31
2023-02-02T12:46:01.317Z,98831.78
2023-02-02T12:48:43.264Z,98835.78
2023-02-02T12:51:27.958Z,98831.63
2023-02-02T12:54:34.851Z,98830.50
2023-02-02T12:57:11.313Z,98810.13
2023-02-02T13:00:05.811Z,98837.25
2023-02-02T13:02:38.705Z,98828.75
2023-02-02T13:05:34.286Z,98829.50
2023-02-02T13:08:12.631Z,98824.44
2023-02-02T13:10:52.294Z,98814.06
2023-02-02T13:13:25.353Z,98815.34
2023-02-02T13:15:57.423Z,98817.44
2023-02-02T13:18:29.612Z,98812.38
2023-02-02T13:21:01.957Z,98811.44
2023-02-02T13:23:32.768Z,98808.47
2023-02-02T13:26:18.261Z,98800.66
2023-02-02T13:29:01.371Z,98802.09
2023-02-02T13:31:42.099Z,98795.78
2023-02-02T13:34:31.179Z,98782.47
2023-02-02T13:37:04.873Z,98779.69
2023-02-02T13:39:45.834Z,98784.44
2023-02-02T13:42:32.293Z,98794.25
2023-02-02T13:45:07.097Z,98792.72
2023-02-02T13:47:43.698Z,98786.53
2023-02-02T13:50:17.312Z,98786.41
2023-02-02T13:52:46.922Z,98798.38
2023-02-02T13:55:42.165Z,98798.09
2023-02-02T13:58:56.624Z,98798.59
2023-02-02T14:01:25.665Z,98799.03
2023-02-02T14:03:56.329Z,98799.03
2023-02-02T14:06:25.813Z,98796.44
2023-02-02T14:09:00.135Z,98802.94
2023-02-02T14:11:40.526Z,98796.66
2023-02-02T14:14:31.995Z,98791.38
2023-02-02T14:17:06.124Z,98805.97
2023-02-02T14:19:35.564Z,98808.34
2023-02-02T14:22:05.217Z,98813.81
2023-02-02T14:24:34.847Z,98807.41
2023-02-02T14:27:07.372Z,98805.53
2023-02-02T14:29:36.698Z,98802.25
2023-02-02T14:32:23.152Z,98789.91
2023-02-02T14:34:52.153Z,98789.00
2023-02-02T14:37:24.521Z,98795.28
2023-02-02T14:39:53.927Z,98798.41
2023-02-02T14:42:57.789Z,98800.56
2023-02-02T14:45:33.232Z,98802.13
2023-02-02T14:48:09.106Z,98794.97
2023-02-02T14:50:38.782Z,98797.69
2023-02-02T14:53:28.511Z,98794.16
2023-02-02T14:56:03.007Z,98792.59
2023-02-02T14:58:43.990Z,98790.34
2023-02-02T15:01:23.658Z,98804.59
2023-02-02T15:04:17.082Z,98809.88
2023-02-02T15:06:44.246Z,98812.38
2023-02-02T15:09:36.606Z,98810.09
2023-02-02T15:12:03.347Z,98817.75
2023-02-02T15:14:35.720Z,98827.44
2023-02-02T15:17:07.128Z,98818.78
2023-02-02T15:19:42.673Z,98816.28
2023-02-02T15:22:21.524Z,98823.09
2023-02-02T15:24:49.374Z,98821.03
2023-02-02T15:27:18.853Z,98827.75
2023-02-02T15:29:50.801Z,98824.22
2023-02-02T15:32:22.349Z,98822.03
2023-02-02T15:34:53.309Z,98833.59
2023-02-02T15:37:24.506Z,98822.44
2023-02-02T15:39:53.030Z,98827.91
2023-02-02T15:42:43.171Z,98836.72
2023-02-02T15:45:28.303Z,98837.59
2023-02-02T15:47:57.671Z,98849.63
2023-02-02T15:50:24.891Z,98850.44
2023-02-02T15:52:52.878Z,98855.63
2023-02-02T15:55:34.126Z,98863.41
2023-02-02T15:58:21.490Z,98870.22
2023-02-02T16:00:56.395Z,98867.25
2023-02-02T16:04:04.954Z,98871.13
2023-02-02T16:06:34.834Z,98866.63
2023-02-02T16:09:05.107Z,98856.00
2023-02-02T16:11:31.989Z,98866.75
2023-02-02T16:14:01.571Z,98877.19
2023-02-02T16:16:38.260Z,98868.06
2023-02-02T16:19:15.943Z,98883.09
2023-02-02T16:21:58.372Z,98882.28
2023-02-02T16:24:28.989Z,98888.91
2023-02-02T16:26:59.311Z,98891.13
2023-02-02T16:29:28.190Z,98895.84
2023-02-02T16:31:56.355Z,98903.72
2023-02-02T16:34:41.593Z,98906.88
2023-02-02T16:37:29.835Z,98908.50
2023-02-02T16:40:17.607Z,98916.78
2023-02-02T16:42:44.438Z,98930.88
2023-02-02T16:45:34.857Z,98934.81
2023-02-02T16:48:29.793Z,98944.25
2023-02-02T16:51:15.206Z,98947.78
2023-02-02T16:53:46.141Z,98946.75
2023-02-02T16:56:47.583Z,98964.75
2023-02-02T16:59:25.321Z,98973.06
2023-02-02T17:01:59.785Z,98968.06
2023-02-02T17:04:27.838Z,98984.16
2023-02-02T17:06:57.251Z,98983.03
2023-02-02T17:09:34.848Z,98983.03
2023-02-02T17:12:31.983Z,98994.91
2023-02-02T17:15:04.730Z,98999.97
2023-02-02T17:17:31.646Z,98986.31
2023-02-02T17:19:58.233Z,98997.75
2023-02-02T17:22:28.455Z,98989.00
2023-02-02T17:24:55.247Z,98999.41
2023-02-02T17:27:27.738Z,98996.84
2023-02-02T17:29:56.084Z,98991.56
2023-02-02T17:32:24.769Z,98990.88
2023-02-02T17:34:51.401Z,98993.19
2023-02-02T17:37:18.669Z,98987.81
2023-02-02T17:39:45.488Z,98993.44
2023-02-02T17:42:26.216Z,98986.56
2023-02-02T17:44:53.017Z,98993.78
2023-02-02T17:47:20.058Z,98992.69
2023-02-02T17:49:46.863Z,99000.25
2023-02-02T17:52:13.723Z,98999.69
2023-02-02T17:54:40.489Z,99009.50
2023-02-02T17:57:07.285Z,99011.41
2023-02-02T17:59:33.974Z,99012.16
2023-02-02T18:02:01.264Z,99009.28
2023-02-02T18:04:28.217Z,99027.63
2023-02-02T18:06:55.298Z,99025.84
2023-02-02T18:09:22.311Z,99028.47
2023-02-02T18:11:49.945Z,99033.47
2023-02-02T18:14:16.617Z,99031.47
2023-02-02T18:16:43.281Z,99028.78
2023-02-02T18:19:10.425Z,99043.13
2023-02-02T18:21:37.554Z,99048.25
2023-02-02T18:24:04.563Z,99045.09
2023-02-02T18:26:32.691Z,99040.13
2023-02-02T18:28:59.536Z,99043.13
2023-02-02T18:31:27.096Z,99038.53
2023-02-02T18:33:54.552Z,99034.41
2023-02-02T18:36:23.626Z,99029.91
2023-02-02T18:38:51.339Z,99036.38
2023-02-02T18:41:19.687Z,99034.00
2023-02-02T18:43:46.377Z,99038.78
2023-02-02T18:46:15.574Z,99030.78
2023-02-02T18:48:43.241Z,99036.47
2023-02-02T18:51:18.724Z,99024.09
2023-02-02T18:53:46.285Z,99031.41
2023-02-02T18:56:14.557Z,99030.34
2023-02-02T18:58:41.816Z,99032.00
2023-02-02T19:01:10.540Z,99033.75
2023-02-02T19:03:37.598Z,99044.88
2023-02-02T19:06:24.191Z,99036.38
2023-02-02T19:08:51.019Z,99045.06
2023-02-02T19:11:20.078Z,99045.78
2023-02-02T19:13:47.439Z,99048.53
2023-02-02T19:16:30.078Z,99050.44
2023-02-02T19:19:00.497Z,99053.25
2023-02-02T19:21:30.488Z,99054.16
2023-02-02T19:23:57.167Z,99053.69
2023-02-02T19:26:28.169Z,99047.09
2023-02-02T19:29:02.784Z,99050.84
2023-02-02T19:31:29.815Z,99052.25
2023-02-02T19:33:57.640Z,99049.91
2023-02-02T19:36:27.774Z,99053.91
2023-02-02T19:39:17.942Z,99048.88
2023-02-02T19:41:44.719Z,99041.06
2023-02-02T19:44:21.129Z,99044.19
2023-02-02T19:46:53.456Z,99042.88
2023-02-02T19:49:27.219Z,99037.88
2023-02-02T19:51:56.057Z,99044.72
2023-02-02T19:54:42.241Z,99035.81
2023-02-02T19:57:36.414Z,99042.34
2023-02-02T20:00:22.846Z,99048.56
2023-02-02T20:03:36.080Z,99054.47
2023-02-02T20:06:04.714Z,99056.22
2023-02-02T20:08:42.357Z,99046.50
2023-02-02T20:11:32.422Z,99054.66
2023-02-02T20:14:03.047Z,99059.94
2023-02-02T20:16:42.151Z,99046.34
2023-02-02T20:19:24.262Z,99047.75
2023-02-02T20:21:52.762Z,99045.19
2023-02-02T20:24:24.328Z,99046.94
2023-02-02T20:26:53.280Z,99048.28
2023-02-02T20:29:38.067Z,99051.44
2023-02-02T20:32:08.501Z,99061.34
2023-02-02T20:34:43.507Z,99056.47
2023-02-02T20:37:31.550Z,99058.03
2023-02-02T20:40:23.351Z,99049.56
2023-02-02T20:42:50.539Z,99048.72
2023-02-02T20:45:18.047Z,99058.56
2023-02-02T20:47:45.726Z,99072.25
2023-02-02T20:50:15.684Z,99064.63
2023-02-02T20:52:42.518Z,99067.88
2023-02-02T20:55:10.065Z,99066.09
2023-02-02T20:57:38.629Z,99060.75
2023-02-02T21:00:07.468Z,99063.69
2023-02-02T21:02:34.428Z,99059.88
2023-02-02T21:05:01.548Z,99062.88
2023-02-02T21:07:28.394Z,99068.50
2023-02-02T21:09:55.609Z,99074.41
2023-02-02T21:12:25.620Z,99070.00
2023-02-02T21:14:53.879Z,99074.88
2023-02-02T21:17:20.721Z,99076.50
2023-02-02T21:19:47.519Z,99080.31
2023-02-02T21:22:14.517Z,99087.84
2023-02-02T21:24:42.575Z,99082.84
2023-02-02T21:27:10.058Z,99083.34
2023-02-02T21:29:37.105Z,99081.84
2023-02-02T21:32:04.125Z,99090.75
2023-02-02T21:34:32.240Z,99083.13
2023-02-02T21:36:59.457Z,99083.81
2023-02-02T21:39:30.671Z,99087.13
2023-02-02T21:42:09.671Z,99090.34
2023-02-02T21:44:54.143Z,99081.69
2023-02-02T21:47:51.262Z,99086.13
2023-02-02T21:50:29.139Z,99095.91
2023-02-02T21:53:14.867Z,99084.09
2023-02-02T21:55:41.866Z,99094.16
2023-02-02T21:58:17.335Z,99087.91
2023-02-02T22:00:43.907Z,99094.81
2023-02-02T22:03:37.147Z,99095.59
2023-02-02T22:06:23.100Z,99088.78
2023-02-02T22:08:50.921Z,99090.00
2023-02-02T22:11:23.920Z,99095.00
2023-02-02T22:13:51.674Z,99102.13
2023-02-02T22:16:20.593Z,99093.66
2023-02-02T22:18:47.828Z,99101.81
2023-02-02T22:21:18.826Z,99097.63
2023-02-02T22:23:47.391Z,99112.19
2023-02-02T22:26:29.349Z,99110.78
2023-02-02T22:28:56.822Z,99112.66
2023-02-02T22:31:23.603Z,99123.25
2023-02-02T22:33:50.341Z,99132.44
2023-02-02T22:36:17.208Z,99144.19
2023-02-02T22:38:44.342Z,99157.41
2023-02-02T22:41:11.116Z,99156.66
2023-02-02T22:43:38.030Z,99157.25
2023-02-02T22:46:05.770Z,99172.41
2023-02-02T22:48:33.095Z,99166.00
2023-02-02T22:50:59.767Z,99175.91
2023-02-02T22:53:26.619Z,99172.81
2023-02-02T22:55:56.659Z,99161.75
2023-02-02T22:58:25.102Z,99160.84
2023-02-02T23:00:52.315Z,99168.44
2023-02-02T23:03:19.345Z,99160.13
2023-02-02T23:05:45.994Z,99163.38
2023-02-02T23:08:12.763Z,99177.41
2023-02-02T23:10:39.672Z,99180.59
2023-02-02T23:13:06.797Z,99182.72
2023-02-02T23:15:34.726Z,99185.16
2023-02-02T23:18:02.016Z,99183.75
2023-02-02T23:20:28.856Z,99197.63
2023-02-02T23:22:55.703Z,99197.31
2023-02-02T23:25:22.414Z,99182.25
2023-02-02T23:27:49.338Z,99194.44
2023-02-02T23:30:17.489Z,99183.88
2023-02-02T23:32:44.184Z,99190.22
2023-02-02T23:35:11.185Z,99193.66
2023-02-02T23:37:38.710Z,99198.19
2023-02-02T23:40:06.112Z,99195.09
2023-02-02T23:42:33.658Z,99198.31
2023-02-02T23:45:00.337Z,99194.25
2023-02-02T23:47:26.999Z,99204.38
2023-02-02T23:49:53.774Z,99203.13
2023-02-02T23:52:20.766Z,99198.06
2023-02-02T23:54:47.848Z,99201.03
2023-02-02T23:57:14.791Z,99207.13
2023-02-02T23:59:41.432Z,99201.28
